Time;durP1;ratioP1;P1;durP2;ratioP2;P2;SDS_P1;SDS_P2;PMS_P1;PMS_P2;Temp;Humidity;BMP_temperature;BMP_pressure;BME280_temperature;BME280_humidity;BME280_pressure;Samples;Min_cycle;Max_cycle;Signal;HPM_P1;HPM_P2
2023/08/07 00:00:31;;;;;;;;;1.00;1.00;;;;;16.65;89.64;101868.34;5095880;27;45554;-72
2023/08/07 00:02:57;;;;;;;;;0.33;0.00;;;;;16.57;88.84;101853.72;5082810;27;48700;-70
2023/08/07 00:05:22;;;;;;;;;0.00;0.00;;;;;16.60;89.38;101870.44;5081453;27;46863;-73
2023/08/07 00:07:48;;;;;;;;;1.00;1.00;;;;;16.57;89.45;101861.72;5086675;27;45562;-72
2023/08/07 00:10:14;;;;;;;;;2.00;2.00;;;;;16.56;89.42;101873.34;5089292;27;45778;-70
2023/08/07 00:12:39;;;;;;;;;1.00;1.00;;;;;16.54;89.43;101861.88;5083143;27;45453;-73
2023/08/07 00:15:05;;;;;;;;;2.00;1.33;;;;;16.48;89.07;101856.88;5086715;27;46305;-72
2023/08/07 00:17:31;;;;;;;;;1.00;1.00;;;;;16.49;89.49;101861.28;5085871;27;45462;-72
2023/08/07 00:19:56;;;;;;;;;1.00;1.00;;;;;16.48;89.14;101871.09;5067176;27;46526;-72
2023/08/07 00:22:22;;;;;;;;;2.00;1.00;;;;;16.38;89.72;101861.00;5082104;27;45552;-72
2023/08/07 00:24:47;;;;;;;;;1.00;1.00;;;;;16.39;89.55;101868.91;5077894;27;47790;-72
2023/08/07 00:27:14;;;;;;;;;1.00;1.00;;;;;16.31;89.50;101862.25;5081291;27;48892;-72
2023/08/07 00:29:39;;;;;;;;;2.00;1.33;;;;;16.27;91.07;101863.38;5095588;27;45362;-72
2023/08/07 00:32:05;;;;;;;;;1.00;1.00;;;;;16.28;90.61;101875.78;5089680;27;45335;-72
2023/08/07 00:34:30;;;;;;;;;1.00;1.00;;;;;16.26;91.16;101875.88;5100065;27;46177;-72
2023/08/07 00:36:56;;;;;;;;;2.00;1.67;;;;;16.19;90.51;101868.28;5082628;27;45335;-72
2023/08/07 00:39:21;;;;;;;;;4.67;2.00;;;;;16.02;91.90;101840.66;5086544;27;45315;-72
2023/08/07 00:41:47;;;;;;;;;1.33;1.33;;;;;16.13;92.67;101864.13;5089708;27;45480;-72
2023/08/07 00:44:13;;;;;;;;;0.00;0.00;;;;;16.14;92.17;101861.38;5078723;27;45407;-72
2023/08/07 00:46:41;;;;;;;;;1.00;1.00;;;;;16.12;93.57;101867.72;5095379;27;45434;-72
2023/08/07 00:49:09;;;;;;;;;2.00;1.00;;;;;16.08;92.04;101871.50;5087021;27;45588;-72
2023/08/07 00:51:35;;;;;;;;;0.67;0.67;;;;;16.05;92.43;101871.66;5074513;27;45529;-72
2023/08/07 00:54:03;;;;;;;;;2.33;2.00;;;;;15.97;92.40;101869.38;5088436;27;45530;-72
2023/08/07 00:56:29;;;;;;;;;1.33;0.00;;;;;15.99;94.29;101872.00;5083825;27;45486;-72
2023/08/07 00:58:55;;;;;;;;;2.00;1.00;;;;;15.93;92.96;101870.50;5097919;27;45410;-72
2023/08/07 01:01:20;;;;;;;;;2.33;2.00;;;;;15.92;94.24;101863.44;5099483;27;45490;-72
2023/08/07 01:03:46;;;;;;;;;0.67;0.67;;;;;15.91;96.64;101869.72;5094115;27;45434;-72
2023/08/07 01:06:11;;;;;;;;;3.33;1.00;;;;;15.83;96.17;101855.94;5076235;27;45485;-72
2023/08/07 01:08:37;;;;;;;;;1.00;1.00;;;;;15.83;95.61;101868.41;5096812;27;45519;-72
2023/08/07 01:11:31;;;;;;;;;1.33;0.00;;;;;15.76;95.30;101869.66;5065295;28;45359;-73
2023/08/07 01:14:28;;;;;;;;;1.00;0.67;;;;;15.73;96.08;101868.03;5098414;27;45508;-72
2023/08/07 01:17:16;;;;;;;;;1.00;1.00;;;;;15.66;95.86;101857.72;5067817;27;45514;-72
2023/08/07 01:19:42;;;;;;;;;4.67;1.00;;;;;15.66;97.30;101860.41;5077750;27;45399;-72
2023/08/07 01:22:15;;;;;;;;;2.00;2.00;;;;;15.62;97.34;101862.34;5091328;27;45295;-72
2023/08/07 01:24:43;;;;;;;;;4.00;1.00;;;;;15.63;99.84;101864.09;5074835;27;45705;-72
2023/08/07 01:27:17;;;;;;;;;3.33;1.00;;;;;15.62;99.06;101859.69;5087120;27;45288;-70
2023/08/07 01:30:25;;;;;;;;;1.00;1.00;;;;;15.59;97.73;101859.84;5091699;27;45350;-72
2023/08/07 01:33:02;;;;;;;;;1.67;1.33;;;;;15.55;100.00;101861.81;5078099;27;45479;-72
2023/08/07 01:35:35;;;;;;;;;1.00;1.00;;;;;15.53;99.17;101855.72;5090077;27;46395;-72
2023/08/07 01:38:01;;;;;;;;;1.33;1.33;;;;;15.47;100.00;101853.31;5064581;27;45483;-72
2023/08/07 01:40:28;;;;;;;;;2.33;1.00;;;;;15.45;100.00;101855.19;5087793;27;46505;-72
2023/08/07 01:42:53;;;;;;;;;5.00;1.00;;;;;15.35;100.00;101851.25;5094472;27;45478;-72
2023/08/07 01:45:27;;;;;;;;;2.00;2.00;;;;;15.30;100.00;101850.63;5092915;27;45898;-72
2023/08/07 01:47:52;;;;;;;;;1.67;1.33;;;;;15.37;100.00;101867.19;5080602;27;45520;-72
2023/08/07 01:50:19;;;;;;;;;1.33;1.33;;;;;15.35;100.00;101869.91;5078008;27;45397;-72
2023/08/07 01:52:44;;;;;;;;;1.00;1.00;;;;;15.27;100.00;101857.91;5085462;27;45520;-72
2023/08/07 01:55:10;;;;;;;;;5.00;1.67;;;;;15.30;100.00;101866.63;5077383;27;45561;-72
2023/08/07 01:57:35;;;;;;;;;3.00;2.00;;;;;15.28;100.00;101867.66;5082549;27;50139;-70
2023/08/07 02:00:00;;;;;;;;;1.00;1.00;;;;;15.28;100.00;101872.97;5097531;27;45348;-72
2023/08/07 02:02:26;;;;;;;;;3.00;2.00;;;;;15.22;100.00;101862.59;5068731;27;59150;-72
2023/08/07 02:04:51;;;;;;;;;2.67;1.00;;;;;15.22;100.00;101873.25;5077447;27;48370;-72
2023/08/07 02:07:16;;;;;;;;;4.00;1.33;;;;;15.17;100.00;101865.50;5093076;27;45296;-72
2023/08/07 02:09:42;;;;;;;;;2.33;1.00;;;;;15.20;100.00;101872.47;5090841;27;46394;-72
2023/08/07 02:12:08;;;;;;;;;3.00;3.00;;;;;15.12;100.00;101868.38;5077648;27;45422;-72
2023/08/07 02:14:33;;;;;;;;;4.33;2.00;;;;;15.09;100.00;101863.22;5090367;27;46313;-72
2023/08/07 02:16:58;;;;;;;;;2.00;2.00;;;;;15.13;100.00;101869.25;5087080;27;45240;-72
2023/08/07 02:19:24;;;;;;;;;2.67;2.00;;;;;15.11;100.00;101866.69;5066456;27;45673;-72
2023/08/07 02:21:49;;;;;;;;;3.00;2.00;;;;;15.08;100.00;101872.13;5086798;27;45351;-72
2023/08/07 02:24:14;;;;;;;;;3.00;1.00;;;;;14.96;100.00;101850.56;5093260;27;45411;-72
2023/08/07 02:26:40;;;;;;;;;2.00;2.00;;;;;15.06;100.00;101868.69;5063297;27;45379;-72
2023/08/07 02:29:07;;;;;;;;;1.00;1.00;;;;;15.05;100.00;101868.78;5094496;27;45485;-72
2023/08/07 02:31:32;;;;;;;;;2.67;2.67;;;;;15.03;100.00;101862.66;5094967;27;45649;-72
2023/08/07 02:33:57;;;;;;;;;2.33;1.67;;;;;14.98;100.00;101859.34;5094382;27;45580;-72
2023/08/07 02:36:23;;;;;;;;;3.00;2.00;;;;;15.00;100.00;101869.00;5092739;27;45500;-70
2023/08/07 02:38:48;;;;;;;;;2.00;2.00;;;;;14.99;100.00;101866.38;5080064;27;45349;-72
2023/08/07 02:41:14;;;;;;;;;4.00;2.00;;;;;14.95;100.00;101863.00;5094520;27;45410;-72
2023/08/07 02:43:39;;;;;;;;;2.67;2.00;;;;;14.86;100.00;101865.25;5095190;27;46486;-72
2023/08/07 02:46:04;;;;;;;;;2.67;2.00;;;;;14.88;100.00;101858.94;5066810;27;45484;-72
2023/08/07 02:48:29;;;;;;;;;1.00;1.00;;;;;14.87;100.00;101865.19;5088425;27;45293;-72
2023/08/07 02:50:55;;;;;;;;;3.00;2.00;;;;;14.85;100.00;101864.41;5091795;27;45262;-72
2023/08/07 02:53:20;;;;;;;;;4.67;2.00;;;;;14.83;100.00;101873.38;5071635;27;46933;-72
2023/08/07 02:55:45;;;;;;;;;2.33;2.00;;;;;14.81;100.00;101862.81;5095208;27;45458;-72
2023/08/07 02:58:11;;;;;;;;;1.67;1.67;;;;;14.69;100.00;101846.56;5068053;27;45327;-72
2023/08/07 03:00:36;;;;;;;;;1.00;1.00;;;;;14.80;100.00;101868.22;5071682;27;47286;-72
2023/08/07 03:03:01;;;;;;;;;1.67;1.67;;;;;14.79;100.00;101877.16;5081466;27;46866;-72
2023/08/07 03:05:27;;;;;;;;;2.33;2.00;;;;;14.77;100.00;101871.88;5083883;27;45395;-72
2023/08/07 03:07:52;;;;;;;;;3.00;3.00;;;;;14.74;100.00;101874.69;5068523;27;46843;-72
2023/08/07 03:10:17;;;;;;;;;1.00;1.00;;;;;14.65;100.00;101855.63;5083888;27;45784;-72
2023/08/07 03:12:43;;;;;;;;;4.00;2.33;;;;;14.70;100.00;101870.44;5070584;27;46417;-72
2023/08/07 03:15:08;;;;;;;;;4.00;2.67;;;;;14.71;100.00;101866.00;5094283;27;45839;-72
2023/08/07 03:17:34;;;;;;;;;4.00;2.00;;;;;14.70;100.00;101873.13;5093311;27;45345;-72
2023/08/07 03:19:59;;;;;;;;;5.33;3.00;;;;;14.62;100.00;101864.63;5089468;27;45300;-72
2023/08/07 03:22:24;;;;;;;;;2.00;2.00;;;;;14.66;100.00;101876.84;5082636;27;53973;-72
2023/08/07 03:24:49;;;;;;;;;4.00;2.00;;;;;14.59;100.00;101870.09;5100715;27;49563;-70
2023/08/07 03:27:15;;;;;;;;;4.00;2.00;;;;;14.62;100.00;101874.41;5089835;27;45332;-71
2023/08/07 03:29:41;;;;;;;;;3.33;1.33;;;;;14.49;100.00;101863.50;5073782;27;45356;-72
2023/08/07 03:32:06;;;;;;;;;2.00;2.00;;;;;14.56;100.00;101876.41;5095420;27;46053;-72
2023/08/07 03:34:32;;;;;;;;;2.67;2.67;;;;;14.54;100.00;101880.09;5088093;27;45407;-72
2023/08/07 03:36:59;;;;;;;;;1.00;1.00;;;;;14.53;100.00;101870.38;5091906;27;45496;-72
2023/08/07 03:39:24;;;;;;;;;1.00;1.00;;;;;14.56;100.00;101884.41;5088052;27;45363;-72
2023/08/07 03:41:50;;;;;;;;;5.00;2.00;;;;;14.53;100.00;101892.53;5086398;27;45417;-71
2023/08/07 03:44:16;;;;;;;;;2.00;2.00;;;;;14.44;100.00;101877.00;5092374;27;45353;-72
2023/08/07 03:46:41;;;;;;;;;2.00;2.00;;;;;14.49;100.00;101883.00;5076352;27;45277;-72
2023/08/07 03:49:07;;;;;;;;;6.00;3.00;;;;;14.46;100.00;101879.59;5084395;27;45303;-72
2023/08/07 03:51:32;;;;;;;;;1.00;1.00;;;;;14.48;100.00;101885.69;5090153;27;48115;-72
2023/08/07 03:53:57;;;;;;;;;5.00;2.00;;;;;14.37;100.00;101869.34;5097382;27;45484;-72
2023/08/07 03:56:23;;;;;;;;;3.00;2.00;;;;;14.47;100.00;101887.50;5092889;27;46727;-72
2023/08/07 03:58:49;;;;;;;;;1.00;1.00;;;;;14.46;100.00;101887.59;5088963;27;45269;-72
2023/08/07 04:01:15;;;;;;;;;2.00;2.00;;;;;14.42;100.00;101886.84;5090276;27;45938;-72
2023/08/07 04:03:40;;;;;;;;;2.00;2.00;;;;;14.37;100.00;101880.88;5083070;27;45366;-72
2023/08/07 04:06:06;;;;;;;;;2.00;2.00;;;;;14.35;100.00;101874.75;5088535;27;45462;-72
2023/08/07 04:08:31;;;;;;;;;2.00;2.00;;;;;14.39;100.00;101886.13;5076437;27;45338;-72
2023/08/07 04:11:00;;;;;;;;;2.00;1.67;;;;;14.38;100.00;101889.72;5092638;27;55644;-72
2023/08/07 04:13:26;;;;;;;;;3.00;3.00;;;;;14.32;100.00;101877.53;5078381;27;45390;-72
2023/08/07 04:15:52;;;;;;;;;0.67;0.33;;;;;14.32;100.00;101876.66;5088590;27;45399;-72
2023/08/07 04:18:17;;;;;;;;;5.33;3.00;;;;;14.34;100.00;101883.66;5089780;27;45388;-72
2023/08/07 04:20:48;;;;;;;;;2.67;2.00;;;;;14.35;100.00;101893.38;5092694;27;46054;-72
2023/08/07 04:23:14;;;;;;;;;2.67;2.67;;;;;14.35;100.00;101889.84;5095621;27;45481;-72
2023/08/07 04:25:39;;;;;;;;;3.00;3.00;;;;;14.29;100.00;101880.34;5084479;27;45429;-72
2023/08/07 04:28:04;;;;;;;;;2.67;2.67;;;;;14.31;100.00;101885.56;5085722;27;53274;-72
2023/08/07 04:30:29;;;;;;;;;4.67;3.00;;;;;14.32;100.00;101892.63;5092256;27;46182;-72
2023/08/07 04:32:55;;;;;;;;;3.00;2.00;;;;;14.30;100.00;101891.84;5074987;27;55345;-72
2023/08/07 04:35:20;;;;;;;;;2.67;2.00;;;;;14.29;100.00;101888.31;5083168;27;45457;-72
2023/08/07 04:37:46;;;;;;;;;3.00;3.00;;;;;14.29;100.00;101895.44;5091743;27;45376;-72
2023/08/07 04:40:11;;;;;;;;;3.33;2.33;;;;;14.31;100.00;101893.56;5089247;27;46572;-72
2023/08/07 04:42:36;;;;;;;;;1.00;1.00;;;;;14.26;100.00;101884.94;5088377;27;45206;-72
2023/08/07 04:45:02;;;;;;;;;2.00;2.00;;;;;14.28;100.00;101902.53;5082287;27;45410;-72
2023/08/07 04:47:28;;;;;;;;;4.00;4.00;;;;;14.34;100.00;101904.97;5086159;27;45403;-72
2023/08/07 04:49:53;;;;;;;;;5.00;2.00;;;;;14.24;100.00;101892.97;5087197;27;45539;-72
2023/08/07 04:52:18;;;;;;;;;4.00;3.00;;;;;14.34;100.00;101901.44;5093454;27;45399;-72
2023/08/07 04:54:44;;;;;;;;;5.00;2.67;;;;;14.32;100.00;101903.28;5092159;27;45326;-72
2023/08/07 04:57:09;;;;;;;;;3.33;3.33;;;;;14.35;100.00;101895.19;5090034;27;45259;-72
2023/08/07 04:59:35;;;;;;;;;7.67;4.00;;;;;14.38;100.00;101901.22;5091156;27;46358;-72
2023/08/07 05:02:01;;;;;;;;;3.33;2.67;;;;;14.38;100.00;101898.56;5095669;27;45520;-72
2023/08/07 05:04:26;;;;;;;;;6.00;3.00;;;;;14.44;100.00;101906.28;5095286;27;45458;-72
2023/08/07 05:06:51;;;;;;;;;4.33;4.00;;;;;14.47;100.00;101907.94;5082058;27;45318;-72
2023/08/07 05:09:16;;;;;;;;;2.67;2.67;;;;;14.48;100.00;101917.66;5084983;27;46033;-72
2023/08/07 05:11:42;;;;;;;;;5.33;3.67;;;;;14.50;100.00;101910.44;5093868;27;45557;-72
2023/08/07 05:14:07;;;;;;;;;6.33;5.00;;;;;14.53;100.00;101902.31;5087557;27;46062;-72
2023/08/07 05:16:32;;;;;;;;;6.67;6.67;;;;;14.64;100.00;101918.66;5097074;27;45405;-72
2023/08/07 05:18:58;;;;;;;;;9.00;9.00;;;;;14.64;100.00;101915.13;5080648;27;54924;-72
2023/08/07 05:21:23;;;;;;;;;10.67;10.67;;;;;14.75;100.00;101920.84;5088662;27;45456;-72
2023/08/07 05:23:52;;;;;;;;;7.00;7.00;;;;;14.79;100.00;101917.94;5083547;27;45334;-72
2023/08/07 05:26:18;;;;;;;;;10.33;4.67;;;;;14.85;100.00;101919.47;5087568;27;45612;-72
2023/08/07 05:28:43;;;;;;;;;7.33;5.33;;;;;14.89;100.00;101916.59;5087773;27;45450;-72
2023/08/07 05:31:08;;;;;;;;;7.67;5.00;;;;;14.88;100.00;101917.53;5098924;27;52913;-72
2023/08/07 05:33:34;;;;;;;;;5.67;4.00;;;;;14.96;100.00;101915.34;5068250;27;45489;-72
2023/08/07 05:35:59;;;;;;;;;5.67;4.00;;;;;15.03;100.00;101922.13;5083817;27;45428;-72
2023/08/07 05:38:24;;;;;;;;;8.33;6.00;;;;;15.07;100.00;101921.06;5085026;27;45686;-72
2023/08/07 05:40:50;;;;;;;;;8.33;6.00;;;;;15.12;100.00;101932.34;5096513;27;45369;-72
2023/08/07 05:43:17;;;;;;;;;7.00;5.33;;;;;15.20;100.00;101939.09;5085413;27;45435;-72
2023/08/07 05:45:44;;;;;;;;;9.67;6.33;;;;;15.25;100.00;101934.44;5086505;27;45380;-72
2023/08/07 05:48:10;;;;;;;;;6.67;5.67;;;;;15.24;100.00;101936.22;5087343;27;45467;-73
2023/08/07 05:50:35;;;;;;;;;5.67;4.00;;;;;15.23;100.00;101936.28;5074191;27;45377;-73
2023/08/07 05:53:00;;;;;;;;;8.67;4.67;;;;;15.25;100.00;101931.78;5082468;27;45566;-73
2023/08/07 05:55:26;;;;;;;;;12.67;6.67;;;;;15.37;100.00;101948.03;5080849;27;45438;-73
2023/08/07 05:57:51;;;;;;;;;8.33;7.33;;;;;15.32;100.00;101930.50;5097068;27;45315;-73
2023/08/07 06:00:19;;;;;;;;;6.00;5.67;;;;;15.43;100.00;101944.19;5084483;27;47730;-73
2023/08/07 06:02:44;;;;;;;;;7.67;6.67;;;;;15.44;100.00;101935.25;5085958;27;45300;-73
2023/08/07 06:05:12;;;;;;;;;12.67;8.00;;;;;15.55;100.00;101954.28;5069250;27;45462;-73
2023/08/07 06:07:37;;;;;;;;;10.00;9.33;;;;;15.50;100.00;101933.19;5085589;27;46307;-73
2023/08/07 06:10:03;;;;;;;;;12.00;9.67;;;;;15.48;100.00;101931.50;5094129;27;45393;-73
2023/08/07 06:12:28;;;;;;;;;11.67;10.00;;;;;15.57;100.00;101939.06;5095472;27;45364;-73
2023/08/07 06:14:54;;;;;;;;;10.00;9.00;;;;;15.63;100.00;101928.09;5074841;27;45593;-73
2023/08/07 06:17:19;;;;;;;;;11.00;9.00;;;;;15.66;100.00;101933.28;5079725;27;45430;-73
2023/08/07 06:19:44;;;;;;;;;10.33;10.33;;;;;15.64;100.00;101935.13;5078681;27;47566;-72
2023/08/07 06:22:10;;;;;;;;;12.00;10.00;;;;;15.70;100.00;101947.31;5066960;27;45554;-71
2023/08/07 06:24:35;;;;;;;;;12.33;11.00;;;;;15.72;100.00;101940.97;5093576;27;45304;-71
2023/08/07 06:27:02;;;;;;;;;12.67;10.00;;;;;15.82;100.00;101952.03;5093591;27;45534;-71
2023/08/07 06:29:27;;;;;;;;;10.00;10.00;;;;;15.85;100.00;101960.75;5086231;27;45570;-71
2023/08/07 06:31:53;;;;;;;;;11.00;9.33;;;;;15.89;100.00;101965.00;5093942;27;45331;-71
2023/08/07 06:34:18;;;;;;;;;14.00;11.00;;;;;15.92;100.00;101945.28;5075199;27;45683;-71
2023/08/07 06:36:43;;;;;;;;;11.00;11.00;;;;;16.03;100.00;101956.28;5082590;27;45746;-72
2023/08/07 06:39:09;;;;;;;;;6.00;6.00;;;;;16.07;100.00;101968.50;5094670;27;45222;-72
2023/08/07 06:41:35;;;;;;;;;9.67;9.67;;;;;16.02;100.00;101957.22;5079857;27;46371;-71
2023/08/07 06:44:00;;;;;;;;;9.33;9.00;;;;;16.00;100.00;101961.78;5093254;27;45399;-72
2023/08/07 06:46:27;;;;;;;;;4.33;4.33;;;;;16.01;100.00;101961.69;5080502;27;45663;-72
2023/08/07 06:48:53;;;;;;;;;12.00;10.33;;;;;16.12;100.00;101971.81;5061843;27;45540;-71
2023/08/07 06:51:18;;;;;;;;;8.67;8.33;;;;;16.11;100.00;101957.59;5081168;27;45414;-72
2023/08/07 06:53:43;;;;;;;;;12.33;10.67;;;;;16.30;100.00;101975.31;5078800;27;45497;-71
2023/08/07 06:56:09;;;;;;;;;10.00;10.00;;;;;16.37;100.00;101979.41;5082537;27;51583;-72
2023/08/07 06:58:34;;;;;;;;;9.67;9.67;;;;;16.38;100.00;101981.13;5059762;27;45514;-72
2023/08/07 07:00:59;;;;;;;;;10.33;9.00;;;;;16.41;100.00;101994.31;5078397;27;46699;-72
2023/08/07 07:03:25;;;;;;;;;10.33;9.00;;;;;16.43;100.00;101981.75;5061428;27;45488;-72
2023/08/07 07:05:50;;;;;;;;;13.00;10.00;;;;;16.53;100.00;101994.53;5069982;27;45865;-72
2023/08/07 07:08:15;;;;;;;;;8.00;5.33;;;;;16.55;100.00;101998.06;5089389;27;45495;-72
2023/08/07 07:10:41;;;;;;;;;9.00;8.00;;;;;16.54;100.00;101982.91;5079443;27;45442;-72
2023/08/07 07:13:09;;;;;;;;;13.33;11.00;;;;;16.63;100.00;101993.16;5076661;28;45272;-72
2023/08/07 07:15:35;;;;;;;;;12.00;11.00;;;;;16.55;100.00;101979.34;5078764;28;45498;-72
2023/08/07 07:18:00;;;;;;;;;11.67;9.00;;;;;16.67;100.00;101994.72;5082298;27;45411;-72
2023/08/07 07:20:26;;;;;;;;;8.67;8.33;;;;;16.72;100.00;101996.28;5088003;27;45309;-72
2023/08/07 07:22:52;;;;;;;;;12.33;11.00;;;;;16.83;100.00;102004.56;5081458;27;45447;-72
2023/08/07 07:25:17;;;;;;;;;9.00;9.00;;;;;16.88;100.00;101995.38;5071053;28;48462;-71
2023/08/07 07:27:43;;;;;;;;;8.33;8.33;;;;;17.03;100.00;101993.66;5064312;27;45310;-72
2023/08/07 07:30:08;;;;;;;;;13.33;9.67;;;;;17.04;100.00;101984.69;5083870;27;45264;-72
2023/08/07 07:32:34;;;;;;;;;10.67;10.67;;;;;17.16;100.00;102002.72;5101872;27;45326;-72
2023/08/07 07:34:59;;;;;;;;;9.67;8.67;;;;;17.18;100.00;102003.50;5084191;27;45482;-72
2023/08/07 07:37:25;;;;;;;;;10.67;7.33;;;;;17.28;100.00;101994.00;5079546;27;45365;-72
2023/08/07 07:39:50;;;;;;;;;9.33;7.00;;;;;17.36;100.00;101999.81;5086014;27;45859;-71
2023/08/07 07:42:15;;;;;;;;;9.33;7.33;;;;;17.42;100.00;102006.63;5080378;27;47011;-72
2023/08/07 07:44:40;;;;;;;;;6.00;5.33;;;;;17.50;100.00;101999.03;5081187;27;52316;-72
2023/08/07 07:47:07;;;;;;;;;8.67;8.33;;;;;17.49;100.00;101984.78;5077468;27;45733;-72
2023/08/07 07:49:33;;;;;;;;;7.00;7.00;;;;;17.78;100.00;101995.66;5082663;27;45334;-71
2023/08/07 07:51:58;;;;;;;;;7.67;7.67;;;;;17.85;100.00;102011.28;5079461;27;46239;-72
2023/08/07 07:54:23;;;;;;;;;7.00;5.33;;;;;17.82;100.00;101989.16;5074695;27;51919;-71
2023/08/07 07:56:49;;;;;;;;;8.67;8.67;;;;;17.89;100.00;102010.16;5096208;27;45271;-71
2023/08/07 07:59:14;;;;;;;;;8.00;8.00;;;;;17.90;100.00;101997.63;5067960;28;50726;-72
2023/08/07 08:01:40;;;;;;;;;9.00;7.00;;;;;18.02;100.00;102012.97;5077361;28;45831;-71
2023/08/07 08:04:06;;;;;;;;;7.67;6.00;;;;;18.08;100.00;102018.81;5081868;27;45950;-71
2023/08/07 08:06:31;;;;;;;;;9.00;7.00;;;;;18.01;99.00;102012.09;5081311;27;45303;-72
2023/08/07 08:08:56;;;;;;;;;6.67;6.00;;;;;17.99;97.75;102013.16;5091986;27;45434;-72
2023/08/07 08:11:22;;;;;;;;;7.00;6.00;;;;;17.97;97.87;102026.59;5081212;27;45549;-71
2023/08/07 08:13:47;;;;;;;;;6.67;5.67;;;;;18.25;100.00;102027.66;5093485;27;54569;-72
2023/08/07 08:16:12;;;;;;;;;7.00;5.00;;;;;18.26;96.06;102007.97;5067307;27;53233;-72
2023/08/07 08:18:37;;;;;;;;;7.00;7.00;;;;;18.37;96.39;102009.03;5091737;27;45365;-72
2023/08/07 08:21:03;;;;;;;;;8.00;8.00;;;;;18.55;96.77;102023.19;5091215;27;48803;-72
2023/08/07 08:23:28;;;;;;;;;8.00;6.33;;;;;18.52;95.68;102029.56;5099414;27;46544;-72
2023/08/07 08:25:54;;;;;;;;;6.33;6.33;;;;;18.56;91.77;102027.56;5090078;27;45498;-72
2023/08/07 08:28:19;;;;;;;;;9.00;4.67;;;;;18.84;92.48;102024.06;5089396;27;45380;-72
2023/08/07 08:30:44;;;;;;;;;6.67;4.00;;;;;19.17;90.83;102024.63;5081037;27;45530;-72
2023/08/07 08:33:12;;;;;;;;;8.33;6.67;;;;;19.35;86.39;102023.44;5085160;27;47628;-72
2023/08/07 08:35:38;;;;;;;;;5.33;5.33;;;;;19.53;85.00;102016.94;5100642;27;45292;-72
2023/08/07 08:38:03;;;;;;;;;4.67;4.00;;;;;19.81;82.75;102031.19;5080279;27;45381;-73
2023/08/07 08:40:33;;;;;;;;;6.33;4.67;;;;;19.76;79.81;102018.94;5096651;27;45555;-72
2023/08/07 08:43:00;;;;;;;;;4.33;4.33;;;;;20.00;80.28;102029.88;5082520;27;45457;-72
2023/08/07 08:45:27;;;;;;;;;6.67;6.67;;;;;20.11;83.79;102010.34;5094071;27;45359;-73
2023/08/07 08:47:59;;;;;;;;;3.67;3.67;;;;;20.17;80.63;102031.41;5081980;27;45444;-73
2023/08/07 08:50:26;;;;;;;;;4.67;4.67;;;;;20.12;78.49;102018.28;5099435;27;45351;-73
2023/08/07 08:52:53;;;;;;;;;6.67;5.00;;;;;20.20;79.16;102023.16;5092682;27;45493;-73
2023/08/07 08:55:20;;;;;;;;;5.67;4.00;;;;;20.42;80.48;102019.91;5069487;27;45475;-73
2023/08/07 08:57:46;;;;;;;;;1.00;0.00;;;;;20.44;81.10;102017.97;5087282;27;45359;-73
2023/08/07 09:00:18;;;;;;;;;4.00;3.00;;;;;20.45;77.51;102014.31;5090672;27;45547;-73
2023/08/07 09:02:45;;;;;;;;;3.67;3.00;;;;;20.64;79.15;102025.50;5088218;27;45525;-72
2023/08/07 09:05:10;;;;;;;;;4.67;4.67;;;;;21.02;81.63;102012.03;5080880;27;46083;-73
2023/08/07 09:07:36;;;;;;;;;4.00;4.00;;;;;20.95;77.25;102003.53;5070983;27;45619;-73
2023/08/07 09:10:03;;;;;;;;;5.33;3.00;;;;;20.82;77.28;102024.19;5095240;27;45517;-73
2023/08/07 09:12:31;;;;;;;;;4.33;4.33;;;;;20.73;74.45;102025.72;5091530;27;45717;-73
2023/08/07 09:14:58;;;;;;;;;3.00;3.00;;;;;20.86;74.28;102017.66;5082767;27;45288;-73
2023/08/07 09:17:26;;;;;;;;;3.33;3.33;;;;;20.88;73.16;102021.06;5089673;27;45380;-73
2023/08/07 09:19:52;;;;;;;;;3.00;3.00;;;;;21.01;71.56;102030.00;5084786;27;45263;-73
2023/08/07 09:22:19;;;;;;;;;4.00;4.00;;;;;21.13;69.85;102031.00;5078883;27;47550;-72
2023/08/07 09:24:44;;;;;;;;;6.33;3.67;;;;;21.21;70.77;102034.84;5098932;27;45284;-73
2023/08/07 09:27:09;;;;;;;;;2.33;2.33;;;;;21.30;72.41;102027.97;5081522;27;45508;-73
2023/08/07 09:29:35;;;;;;;;;4.67;3.33;;;;;21.42;71.13;102010.91;5093235;27;45482;-74
2023/08/07 09:32:08;;;;;;;;;4.67;4.00;;;;;21.58;70.02;102026.78;5094767;27;45323;-74
2023/08/07 09:34:34;;;;;;;;;4.00;4.00;;;;;21.64;65.75;102032.56;5092127;27;45374;-73
2023/08/07 09:36:59;;;;;;;;;5.00;4.00;;;;;21.54;68.09;102017.19;5082899;27;45600;-74
2023/08/07 09:39:25;;;;;;;;;3.00;3.00;;;;;21.75;67.45;102034.47;5088736;27;45329;-75
2023/08/07 09:41:51;;;;;;;;;2.00;2.00;;;;;21.83;65.47;102024.84;5086668;27;45544;-75
2023/08/07 09:44:16;;;;;;;;;3.00;3.00;;;;;21.95;63.06;102033.88;5082923;27;45426;-75
2023/08/07 09:46:43;;;;;;;;;3.00;3.00;;;;;22.10;65.73;102016.53;5096377;27;45368;-75
2023/08/07 09:49:08;;;;;;;;;2.33;2.33;;;;;22.34;62.88;102029.97;5096010;27;45389;-75
2023/08/07 09:51:52;;;;;;;;;3.67;2.67;;;;;22.40;62.43;102017.84;5083662;27;45288;-75
2023/08/07 09:54:17;;;;;;;;;2.67;2.33;;;;;22.40;63.08;102018.72;5088487;27;45489;-75
2023/08/07 09:56:43;;;;;;;;;3.00;3.00;;;;;22.50;63.15;102024.25;5089215;27;45319;-75
2023/08/07 09:59:08;;;;;;;;;2.67;2.67;;;;;22.57;63.62;102010.19;5083309;27;45841;-74
2023/08/07 10:01:37;;;;;;;;;2.00;2.00;;;;;22.72;63.95;102010.84;5081893;27;46364;-75
2023/08/07 10:04:04;;;;;;;;;3.00;3.00;;;;;22.72;63.10;101992.81;5075626;27;45525;-75
2023/08/07 10:06:30;;;;;;;;;4.00;3.00;;;;;22.90;60.37;102008.53;5095718;27;45284;-75
2023/08/07 10:08:56;;;;;;;;;2.00;2.00;;;;;22.91;60.32;102010.22;5083707;27;45336;-75
2023/08/07 10:11:23;;;;;;;;;3.00;1.00;;;;;22.87;58.74;102014.19;5080383;27;45264;-75
2023/08/07 10:13:49;;;;;;;;;2.33;2.33;;;;;22.84;59.76;102001.75;5081367;27;45369;-75
2023/08/07 10:16:14;;;;;;;;;2.67;2.00;;;;;22.79;59.06;101991.34;5082904;27;45410;-75
2023/08/07 10:18:40;;;;;;;;;2.67;1.33;;;;;22.86;59.85;101967.44;5091578;27;45553;-75
2023/08/07 10:21:06;;;;;;;;;3.00;3.00;;;;;22.91;59.53;101988.63;5093981;27;46545;-75
2023/08/07 10:23:36;;;;;;;;;1.67;1.67;;;;;22.78;60.59;101999.56;5087935;27;45659;-74
2023/08/07 10:26:05;;;;;;;;;1.33;1.33;;;;;22.57;63.70;101971.56;5079054;27;45386;-76
2023/08/07 10:28:33;;;;;;;;;3.33;2.00;;;;;22.73;58.94;101972.09;5076406;27;45360;-76
2023/08/07 10:30:59;;;;;;;;;2.00;2.00;;;;;22.94;56.91;101978.47;5085876;27;46999;-76
2023/08/07 10:33:25;;;;;;;;;1.00;1.00;;;;;22.77;58.86;101977.09;5104561;27;45601;-76
2023/08/07 10:35:52;;;;;;;;;2.00;2.00;;;;;22.82;59.58;101984.84;5083459;27;45513;-75
2023/08/07 10:38:23;;;;;;;;;2.00;2.00;;;;;22.83;59.54;101984.75;5093806;27;45765;-75
2023/08/07 10:41:02;;;;;;;;;2.00;2.00;;;;;22.98;57.85;101982.63;5096980;27;45378;-75
2023/08/07 10:43:28;;;;;;;;;2.00;2.00;;;;;23.13;57.72;101986.81;5096049;27;45394;-75
2023/08/07 10:46:04;;;;;;;;;5.00;2.00;;;;;23.34;60.73;101986.88;5092472;27;45316;-76
2023/08/07 10:48:29;;;;;;;;;2.00;2.00;;;;;23.50;54.75;101978.41;5108650;27;45415;-76
2023/08/07 10:50:56;;;;;;;;;2.00;2.00;;;;;23.60;57.52;101972.13;5094191;27;45421;-76
2023/08/07 10:53:35;;;;;;;;;2.33;2.33;;;;;23.71;55.49;101977.50;5101040;27;45556;-76
2023/08/07 10:56:04;;;;;;;;;1.33;1.33;;;;;23.79;54.58;101974.13;5091846;27;45404;-76
2023/08/07 10:58:34;;;;;;;;;1.67;1.67;;;;;23.79;52.13;101971.44;5098073;27;45541;-76
2023/08/07 11:01:14;;;;;;;;;2.00;2.00;;;;;23.88;53.29;101976.09;5097054;27;46039;-76
2023/08/07 11:03:42;;;;;;;;;1.33;1.33;;;;;24.02;54.44;101973.03;5082017;27;45504;-75
2023/08/07 11:06:10;;;;;;;;;1.33;1.33;;;;;23.90;53.47;101966.00;5100849;27;45489;-75
2023/08/07 11:08:35;;;;;;;;;1.00;1.00;;;;;23.99;55.41;101967.91;5084873;27;45297;-75
2023/08/07 11:11:07;;;;;;;;;2.33;2.33;;;;;24.10;54.05;101967.84;5086166;27;46088;-75
2023/08/07 11:13:35;;;;;;;;;1.67;1.67;;;;;24.06;54.58;101952.88;5098667;27;45344;-75
2023/08/07 11:16:05;;;;;;;;;1.00;1.00;;;;;23.94;51.40;101962.03;5084260;27;45487;-75